createdAt,value
2017-09-15T00:01:12.036Z,70.30
2017-09-15T00:03:40.361Z,70.60
2017-09-15T00:06:08.655Z,70.90
2017-09-15T00:08:36.184Z,70.80
2017-09-15T00:11:03.752Z,70.30
2017-09-15T00:13:31.303Z,70.70
2017-09-15T00:15:58.831Z,70.80
2017-09-15T00:18:26.447Z,70.70
2017-09-15T00:20:54.744Z,71.00
2017-09-15T00:23:22.276Z,71.00
2017-09-15T00:25:50.599Z,71.20
2017-09-15T00:28:18.131Z,71.20
2017-09-15T00:30:45.655Z,70.90
2017-09-15T00:33:24.334Z,70.80
2017-09-15T00:39:07.025Z,71.20
2017-09-15T00:41:35.095Z,71.70
2017-09-15T00:44:03.397Z,71.60
2017-09-15T00:46:30.952Z,71.50
2017-09-15T00:48:58.479Z,71.30
2017-09-15T00:51:26.007Z,71.30
2017-09-15T00:53:53.636Z,71.20
2017-09-15T00:56:21.172Z,71.50
2017-09-15T00:58:49.471Z,71.60
2017-09-15T01:01:17.019Z,71.50
2017-09-15T01:09:26.754Z,72.40
2017-09-15T01:11:54.296Z,72.40
2017-09-15T01:14:21.820Z,72.30
2017-09-15T01:16:49.378Z,72.40
2017-09-15T01:19:17.666Z,72.10
2017-09-15T01:21:45.196Z,72.10
2017-09-15T01:24:12.753Z,72.10
2017-09-15T01:26:40.283Z,72.00
2017-09-15T01:29:07.808Z,71.60
2017-09-15T01:31:35.607Z,71.80
2017-09-15T01:34:03.139Z,71.70
2017-09-15T01:36:30.672Z,71.60
2017-09-15T01:38:58.225Z,71.80
2017-09-15T01:41:26.519Z,72.40
2017-09-15T01:43:54.059Z,72.40
2017-09-15T01:46:21.611Z,72.20
2017-09-15T01:48:49.139Z,72.10
2017-09-15T01:51:16.667Z,72.20
2017-09-15T01:53:44.247Z,72.20
2017-09-15T01:56:11.777Z,72.30
2017-09-15T01:58:40.098Z,72.70
2017-09-15T02:01:07.675Z,72.80
2017-09-15T02:03:35.201Z,73.00
2017-09-15T02:06:02.750Z,73.50
2017-09-15T02:08:30.308Z,73.50
2017-09-15T02:10:57.839Z,73.70
2017-09-15T02:13:25.362Z,73.60
2017-09-15T02:15:52.943Z,73.50
2017-09-15T02:18:20.467Z,73.90
2017-09-15T02:20:47.988Z,74.10
2017-09-15T02:23:16.416Z,74.50
2017-09-15T02:25:43.939Z,74.70
2017-09-15T02:28:11.468Z,74.60
2017-09-15T02:30:39.027Z,74.90
2017-09-15T02:33:06.550Z,75.20
2017-09-15T02:35:34.084Z,74.70
2017-09-15T02:38:01.663Z,74.40
2017-09-15T02:40:29.192Z,74.30
2017-09-15T02:42:56.730Z,74.40
2017-09-15T02:45:24.711Z,74.40
2017-09-15T02:47:52.239Z,74.10
2017-09-15T02:50:19.767Z,74.30
2017-09-15T02:52:47.320Z,74.10
2017-09-15T02:55:16.381Z,74.00
2017-09-15T02:57:44.675Z,73.90
2017-09-15T03:00:12.279Z,73.80
2017-09-15T03:02:39.799Z,73.70
2017-09-15T03:05:07.338Z,74.00
2017-09-15T03:07:35.695Z,73.70
2017-09-15T03:10:03.223Z,73.60
2017-09-15T03:12:30.752Z,73.40
2017-09-15T03:14:58.304Z,73.20
2017-09-15T03:17:26.599Z,73.30
2017-09-15T03:19:54.123Z,73.30
2017-09-15T03:22:21.704Z,73.20
2017-09-15T03:24:49.999Z,74.00
2017-09-15T03:27:17.528Z,74.00
2017-09-15T03:29:45.844Z,74.30
2017-09-15T03:32:14.552Z,74.10
2017-09-15T03:34:42.078Z,74.20
2017-09-15T03:37:09.634Z,74.40
2017-09-15T03:39:37.171Z,74.50
2017-09-15T03:42:05.465Z,74.00
2017-09-15T03:44:33.043Z,74.00
2017-09-15T03:47:01.071Z,74.10
2017-09-15T03:49:28.596Z,74.30
2017-09-15T03:51:56.156Z,74.50
2017-09-15T03:54:23.679Z,74.20
2017-09-15T03:56:51.200Z,74.30
2017-09-15T03:59:18.755Z,74.50
2017-09-15T04:01:46.283Z,74.40
2017-09-15T04:04:25.567Z,74.50
2017-09-15T04:09:25.920Z,74.80
2017-09-15T04:11:53.518Z,75.20
2017-09-15T04:14:21.067Z,75.50
2017-09-15T04:16:48.595Z,75.40
2017-09-15T04:19:16.419Z,75.80
2017-09-15T04:21:43.952Z,75.90
2017-09-15T04:24:11.479Z,75.70
2017-09-15T04:26:39.832Z,75.80
2017-09-15T04:29:07.355Z,75.70
2017-09-15T04:31:34.891Z,75.50
2017-09-15T04:34:02.649Z,75.80
2017-09-15T04:36:30.959Z,75.80
2017-09-15T04:38:58.495Z,75.80
2017-09-15T04:41:26.056Z,76.00
2017-09-15T04:43:53.596Z,75.80
2017-09-15T04:46:21.893Z,76.10
2017-09-15T04:48:49.495Z,76.10
2017-09-15T04:51:17.031Z,76.20
2017-09-15T04:53:44.595Z,76.30
2017-09-15T04:56:13.879Z,76.40
2017-09-15T04:58:41.411Z,76.40
2017-09-15T05:01:09.699Z,76.50
2017-09-15T05:03:37.256Z,76.50
2017-09-15T05:06:04.827Z,76.40
2017-09-15T05:08:32.398Z,76.10
2017-09-15T05:10:59.984Z,76.30
2017-09-15T05:13:27.515Z,76.50
2017-09-15T05:15:55.039Z,76.50
2017-09-15T05:18:22.635Z,76.40
2017-09-15T05:20:50.163Z,76.00
2017-09-15T05:23:18.455Z,76.10
2017-09-15T05:25:46.770Z,76.00
2017-09-15T05:28:24.507Z,76.00
2017-09-15T05:35:07.163Z,76.00
2017-09-15T05:37:35.511Z,76.50
2017-09-15T05:40:03.896Z,76.40
2017-09-15T05:42:31.514Z,76.00
2017-09-15T05:44:59.067Z,76.00
2017-09-15T05:47:26.605Z,75.60
2017-09-15T05:49:54.931Z,75.20
2017-09-15T05:52:22.467Z,75.10
2017-09-15T05:54:49.991Z,75.30
2017-09-15T05:57:17.611Z,75.40
2017-09-15T05:59:45.141Z,74.70
2017-09-15T06:02:14.443Z,74.40
2017-09-15T06:04:41.995Z,74.30
2017-09-15T06:07:09.515Z,74.10
2017-09-15T06:09:37.040Z,74.00
2017-09-15T06:12:04.604Z,74.10
2017-09-15T06:14:32.132Z,74.10
2017-09-15T06:16:59.667Z,74.20
2017-09-15T06:19:28.412Z,74.40
2017-09-15T06:21:56.699Z,74.00
2017-09-15T06:24:24.224Z,73.90
2017-09-15T06:26:51.784Z,72.90
2017-09-15T06:29:19.308Z,72.90
2017-09-15T06:31:46.839Z,73.50
2017-09-15T06:34:15.489Z,72.90
2017-09-15T06:36:43.013Z,72.20
2017-09-15T06:39:10.535Z,72.20
2017-09-15T06:41:38.114Z,71.90
2017-09-15T06:44:05.635Z,72.50
2017-09-15T06:46:33.155Z,72.20
2017-09-15T06:49:00.710Z,71.80
2017-09-15T06:51:28.507Z,71.40
2017-09-15T06:53:56.035Z,70.30
2017-09-15T06:56:23.587Z,69.70
2017-09-15T06:58:51.115Z,65.80
2017-09-15T07:01:19.416Z,56.40
2017-09-15T07:03:47.027Z,56.40
2017-09-15T07:06:15.553Z,51.90
2017-09-15T07:08:43.083Z,48.80
2017-09-15T07:11:10.640Z,44.00
2017-09-15T07:13:38.944Z,39.80
2017-09-15T07:16:06.471Z,39.70
2017-09-15T07:18:34.044Z,38.80
2017-09-15T07:21:01.576Z,35.60
2017-09-15T07:23:29.120Z,34.60
2017-09-15T07:25:57.763Z,30.00
2017-09-15T07:28:25.303Z,29.90
2017-09-15T07:30:52.835Z,30.40
2017-09-15T07:33:20.391Z,29.80
2017-09-15T07:35:48.679Z,30.10
2017-09-15T07:38:16.491Z,30.10
2017-09-15T07:40:44.056Z,28.70
2017-09-15T07:43:11.581Z,27.80
2017-09-15T07:45:39.127Z,27.40
2017-09-15T07:48:06.719Z,28.10
2017-09-15T07:50:34.243Z,27.10
2017-09-15T07:53:03.119Z,26.10
2017-09-15T07:55:30.684Z,26.00
2017-09-15T07:57:58.971Z,24.70
2017-09-15T08:00:26.503Z,24.60
2017-09-15T08:02:54.847Z,24.00
2017-09-15T08:05:22.380Z,23.90
2017-09-15T08:07:49.915Z,23.90
2017-09-15T08:10:18.258Z,23.30
2017-09-15T08:12:47.111Z,23.30
2017-09-15T08:15:16.448Z,23.00
2017-09-15T08:17:44.018Z,23.20
2017-09-15T08:20:11.543Z,23.30
2017-09-15T08:22:39.076Z,22.40
2017-09-15T08:25:06.651Z,21.00
2017-09-15T08:27:34.191Z,21.00
2017-09-15T08:30:02.484Z,22.90
2017-09-15T08:32:30.092Z,22.90
2017-09-15T08:34:57.619Z,22.30
2017-09-15T08:37:25.146Z,21.80
2017-09-15T08:39:53.472Z,21.50
2017-09-15T08:42:21.002Z,21.50
2017-09-15T08:44:48.523Z,20.20
2017-09-15T08:47:16.424Z,20.40
2017-09-15T08:49:43.959Z,20.70
2017-09-15T08:52:12.255Z,20.90
2017-09-15T08:54:40.057Z,20.90
2017-09-15T08:57:07.579Z,20.80
2017-09-15T08:59:35.116Z,19.90
2017-09-15T09:02:02.675Z,20.60
2017-09-15T09:04:30.199Z,21.70
2017-09-15T09:06:57.913Z,23.30
2017-09-15T09:09:25.471Z,24.40
2017-09-15T09:11:53.772Z,21.30
2017-09-15T09:14:21.320Z,21.20
2017-09-15T09:16:48.903Z,20.50
2017-09-15T09:19:16.436Z,19.20
2017-09-15T09:21:44.772Z,19.10
2017-09-15T09:24:12.331Z,19.10
2017-09-15T09:26:39.866Z,19.60
2017-09-15T09:29:07.408Z,18.20
2017-09-15T09:31:34.974Z,17.90
2017-09-15T09:34:02.512Z,17.50
2017-09-15T09:36:30.048Z,19.00
2017-09-15T09:38:57.657Z,19.50
2017-09-15T09:41:25.199Z,19.80
2017-09-15T09:43:52.734Z,20.40
2017-09-15T09:46:20.318Z,20.00
2017-09-15T09:48:47.901Z,20.50
2017-09-15T09:51:16.443Z,23.60
2017-09-15T09:53:44.763Z,25.60
2017-09-15T09:56:12.287Z,25.60
2017-09-15T09:58:39.808Z,26.40
2017-09-15T10:01:07.391Z,27.70
2017-09-15T10:03:34.915Z,29.20
2017-09-15T10:06:02.458Z,29.00
2017-09-15T10:08:30.800Z,31.70
2017-09-15T10:10:58.343Z,31.70
2017-09-15T10:13:25.876Z,32.10
2017-09-15T10:15:53.430Z,32.30
2017-09-15T10:18:20.965Z,33.30
2017-09-15T10:20:48.486Z,33.10
2017-09-15T10:23:16.423Z,32.50
2017-09-15T10:25:43.953Z,33.30
2017-09-15T10:28:11.503Z,35.20
2017-09-15T10:30:39.060Z,35.50
2017-09-15T10:33:06.587Z,35.70
2017-09-15T10:35:34.255Z,34.80
2017-09-15T10:38:02.271Z,35.40
2017-09-15T10:40:29.807Z,35.70
2017-09-15T10:42:57.334Z,35.20
2017-09-15T10:45:25.475Z,36.50
2017-09-15T10:47:52.999Z,38.40
2017-09-15T10:50:20.535Z,37.30
2017-09-15T10:52:48.104Z,38.30
2017-09-15T10:55:16.442Z,38.10
2017-09-15T10:57:50.026Z,38.30
2017-09-15T11:00:17.555Z,38.40
2017-09-15T11:02:45.083Z,38.60
2017-09-15T11:05:12.664Z,38.80
2017-09-15T11:07:40.199Z,37.20
2017-09-15T11:10:07.720Z,37.20
2017-09-15T11:12:35.276Z,38.10
2017-09-15T11:15:03.571Z,38.00
2017-09-15T11:17:31.104Z,38.60
2017-09-15T11:19:58.659Z,39.80
2017-09-15T11:22:26.187Z,41.00
2017-09-15T11:24:53.708Z,40.60
2017-09-15T11:27:21.299Z,41.60
2017-09-15T11:29:48.831Z,39.80
2017-09-15T11:32:16.391Z,42.70
2017-09-15T11:34:43.960Z,40.60
2017-09-15T11:37:11.490Z,42.10
2017-09-15T11:39:39.884Z,39.50
2017-09-15T11:42:07.456Z,39.90
2017-09-15T11:44:34.990Z,39.60
2017-09-15T11:47:02.515Z,40.30
2017-09-15T11:49:30.142Z,41.00
2017-09-15T11:51:57.678Z,40.50
2017-09-15T11:54:25.225Z,41.00
2017-09-15T11:56:52.787Z,39.50
2017-09-15T11:59:20.931Z,37.00
2017-09-15T12:01:49.225Z,40.00
2017-09-15T12:04:16.785Z,40.00
2017-09-15T12:06:44.319Z,37.60
2017-09-15T12:09:11.852Z,38.90
2017-09-15T12:11:39.681Z,38.30
2017-09-15T12:14:07.302Z,37.90
2017-09-15T14:28:41.762Z,41.20
2017-09-15T14:31:10.549Z,41.30
2017-09-15T14:33:38.079Z,38.90
2017-09-15T14:36:05.646Z,40.50
2017-09-15T14:38:34.011Z,41.30
2017-09-15T14:41:01.545Z,41.30
2017-09-15T14:43:29.114Z,42.80
2017-09-15T14:45:56.651Z,42.60
2017-09-15T14:48:24.201Z,41.40
2017-09-15T14:50:51.790Z,40.50
2017-09-15T14:53:19.317Z,41.30
2017-09-15T14:55:46.842Z,42.50
2017-09-15T14:58:15.494Z,42.40
2017-09-15T15:00:43.024Z,42.40
2017-09-15T15:03:10.547Z,41.60
2017-09-15T15:05:38.108Z,42.30
2017-09-15T15:08:06.404Z,41.60
2017-09-15T15:10:33.936Z,41.60
2017-09-15T15:13:01.540Z,41.70
2017-09-15T15:15:29.071Z,41.30
2017-09-15T15:17:56.628Z,41.40
2017-09-15T15:20:24.960Z,41.40
2017-09-15T15:22:52.491Z,41.40
2017-09-15T15:25:20.020Z,42.00
2017-09-15T15:27:48.349Z,42.50
2017-09-15T15:30:16.846Z,42.40
2017-09-15T15:32:44.380Z,41.90
2017-09-15T15:35:12.019Z,42.80
2017-09-15T15:37:39.558Z,43.40
2017-09-15T15:40:07.091Z,43.30
2017-09-15T15:42:34.656Z,43.20
2017-09-15T15:45:02.191Z,43.10
2017-09-15T15:47:29.734Z,44.60
2017-09-15T15:49:57.295Z,45.50
2017-09-15T15:52:24.825Z,44.80
2017-09-15T15:54:53.122Z,45.70
2017-09-15T15:57:21.479Z,47.60
2017-09-15T15:59:49.008Z,47.00
2017-09-15T16:02:16.531Z,47.70
2017-09-15T16:04:44.088Z,47.80
2017-09-15T16:07:12.393Z,47.80
2017-09-15T16:09:40.435Z,48.30
2017-09-15T16:12:07.997Z,49.00
2017-09-15T16:14:35.527Z,48.70
2017-09-15T16:17:03.055Z,48.90
2017-09-15T16:19:30.635Z,49.50
2017-09-15T16:21:58.168Z,49.80
2017-09-15T16:24:25.711Z,50.20
2017-09-15T16:26:53.288Z,50.70
2017-09-15T16:29:20.819Z,50.80
2017-09-15T16:31:48.856Z,50.70
2017-09-15T16:34:17.972Z,52.20
2017-09-15T16:36:45.512Z,53.00
2017-09-15T16:39:21.092Z,52.60
2017-09-15T16:41:55.050Z,52.60
2017-09-15T16:44:29.163Z,53.40
2017-09-15T16:47:02.306Z,53.60
2017-09-15T16:49:30.169Z,53.80
2017-09-15T16:51:57.761Z,53.80
2017-09-15T16:54:25.949Z,54.20
2017-09-15T16:56:54.321Z,55.50
2017-09-15T16:59:21.856Z,55.40
2017-09-15T17:01:49.378Z,56.20
2017-09-15T17:04:16.943Z,55.80
2017-09-15T17:06:44.475Z,55.90
2017-09-15T17:09:12.004Z,56.50
2017-09-15T17:11:39.616Z,56.70
2017-09-15T17:14:07.167Z,56.30
2017-09-15T17:16:35.552Z,56.70
2017-09-15T17:19:04.003Z,57.00
2017-09-15T17:21:31.540Z,57.00
2017-09-15T17:23:59.085Z,56.70
2017-09-15T17:26:27.424Z,57.20
2017-09-15T17:28:57.278Z,56.90
2017-09-15T17:31:25.447Z,56.90
2017-09-15T17:33:56.478Z,57.50
2017-09-15T17:36:24.065Z,57.20
2017-09-15T17:38:51.694Z,58.00
2017-09-15T17:41:19.298Z,57.10
2017-09-15T17:43:46.821Z,57.10
2017-09-15T17:46:25.500Z,57.60
2017-09-15T17:51:47.160Z,58.80
2017-09-15T17:54:15.620Z,59.80
2017-09-15T17:56:43.191Z,60.20
2017-09-15T17:59:12.888Z,60.50
2017-09-15T18:01:40.576Z,60.40
2017-09-15T18:04:08.904Z,60.50
2017-09-15T18:06:36.514Z,60.50
2017-09-15T18:09:06.382Z,61.40
2017-09-15T18:11:34.115Z,61.40
2017-09-15T18:14:01.736Z,61.40
2017-09-15T18:16:30.040Z,62.50
2017-09-15T18:18:57.597Z,62.40
2017-09-15T18:21:25.182Z,62.00
2017-09-15T18:23:52.719Z,61.50
2017-09-15T18:26:20.251Z,62.30
2017-09-15T18:28:47.918Z,62.20
2017-09-15T18:31:17.149Z,61.80
2017-09-15T18:33:44.679Z,61.80
2017-09-15T18:36:12.491Z,61.10
2017-09-15T18:38:40.789Z,62.10
2017-09-15T18:41:08.330Z,62.10
2017-09-15T18:43:35.944Z,62.00
2017-09-15T18:46:03.466Z,62.20
2017-09-15T18:48:31.079Z,62.70
2017-09-15T18:50:59.416Z,62.00
2017-09-15T18:53:26.956Z,62.00
2017-09-15T18:58:34.820Z,64.60
2017-09-15T19:01:02.548Z,63.80
2017-09-15T19:06:03.944Z,62.40
2017-09-15T19:08:31.479Z,62.90
2017-09-15T19:10:59.023Z,64.10
2017-09-15T19:13:26.611Z,65.70
2017-09-15T19:15:54.151Z,66.70
2017-09-15T19:18:21.691Z,68.00
2017-09-15T19:20:49.251Z,68.00
2017-09-15T19:23:16.821Z,69.10
2017-09-15T19:25:44.351Z,69.00
2017-09-15T19:28:11.981Z,69.30
2017-09-15T19:30:39.559Z,68.50
2017-09-15T19:33:07.092Z,68.40
2017-09-15T19:35:34.654Z,67.00
2017-09-15T19:38:02.351Z,67.20
2017-09-15T19:40:37.012Z,67.70
2017-09-15T19:43:04.564Z,67.50
2017-09-15T19:45:32.100Z,68.20
2017-09-15T19:47:59.781Z,68.50
2017-09-15T19:50:28.124Z,69.20
2017-09-15T19:52:55.671Z,69.10
2017-09-15T19:55:23.277Z,68.60
2017-09-15T19:57:50.836Z,67.80
2017-09-15T20:00:19.051Z,67.90
2017-09-15T20:02:46.628Z,68.60
2017-09-15T20:05:16.290Z,68.10
2017-09-15T20:07:43.833Z,68.00
2017-09-15T20:10:11.431Z,68.30
2017-09-15T20:12:38.951Z,68.60
2017-09-15T20:15:06.503Z,69.00
2017-09-15T20:17:34.059Z,69.10
2017-09-15T20:20:01.726Z,68.50
2017-09-15T20:22:30.078Z,68.60
2017-09-15T20:24:58.423Z,69.00
2017-09-15T20:27:26.021Z,68.90
2017-09-15T20:29:53.566Z,69.40
2017-09-15T20:32:21.182Z,69.40
2017-09-15T20:34:48.726Z,69.80
2017-09-15T20:37:17.227Z,69.40
2017-09-15T20:39:45.355Z,69.40
2017-09-15T20:42:24.313Z,69.70
2017-09-15T20:49:28.277Z,69.80
2017-09-15T20:51:55.807Z,70.70
2017-09-15T20:54:23.339Z,71.90
2017-09-15T20:56:50.919Z,71.70
2017-09-15T20:59:19.215Z,71.50
2017-09-15T21:01:46.773Z,71.40
2017-09-15T21:04:16.315Z,71.50
2017-09-15T21:06:43.847Z,71.50
2017-09-15T21:09:11.384Z,71.70
2017-09-15T21:11:38.975Z,71.10
2017-09-15T21:14:06.554Z,71.30
2017-09-15T21:16:34.090Z,71.40
2017-09-15T21:19:01.812Z,71.20
2017-09-15T21:21:29.375Z,71.00
2017-09-15T21:23:57.692Z,71.10
2017-09-15T21:26:26.035Z,70.50
2017-09-15T21:28:54.333Z,71.00
2017-09-15T21:31:21.887Z,70.90
2017-09-15T21:33:49.491Z,71.20
2017-09-15T21:36:17.037Z,71.00
2017-09-15T21:38:44.602Z,69.70
2017-09-15T21:41:12.459Z,70.30
2017-09-15T21:43:39.997Z,70.10
2017-09-15T21:46:07.565Z,69.70
2017-09-15T21:48:35.240Z,69.40
2017-09-15T21:51:02.784Z,69.90
2017-09-15T21:53:30.319Z,69.70
2017-09-15T21:55:58.684Z,70.20
2017-09-15T21:58:26.215Z,70.10
2017-09-15T22:00:53.753Z,70.00
2017-09-15T22:03:21.313Z,69.70
2017-09-15T22:05:48.847Z,69.30
2017-09-15T22:08:16.473Z,70.00
2017-09-15T22:10:44.036Z,69.60
2017-09-15T22:13:11.573Z,70.20
2017-09-15T22:15:39.108Z,70.30
2017-09-15T22:18:06.691Z,70.50
2017-09-15T22:20:34.229Z,70.60
2017-09-15T22:23:01.765Z,72.40
2017-09-15T22:25:29.319Z,73.50
2017-09-15T22:27:57.624Z,72.40
2017-09-15T22:30:25.147Z,72.40
2017-09-15T22:32:52.707Z,72.10
2017-09-15T22:35:21.000Z,72.90
2017-09-15T22:37:48.541Z,72.40
2017-09-15T22:40:16.483Z,72.40
2017-09-15T22:42:44.266Z,71.80
2017-09-15T22:45:11.799Z,71.10
2017-09-15T22:47:39.367Z,71.40
2017-09-15T22:50:06.899Z,71.60
2017-09-15T22:52:34.440Z,72.60
2017-09-15T22:55:01.995Z,72.00
2017-09-15T22:57:29.532Z,71.80
2017-09-15T22:59:57.062Z,71.60
2017-09-15T23:02:24.663Z,72.30
2017-09-15T23:04:52.965Z,73.10
2017-09-15T23:07:20.499Z,73.00
2017-09-15T23:09:48.823Z,73.00
2017-09-15T23:12:17.175Z,73.20
2017-09-15T23:14:44.704Z,73.20
2017-09-15T23:17:12.255Z,73.70
2017-09-15T23:19:39.784Z,72.60
2017-09-15T23:22:07.310Z,72.60
2017-09-15T23:24:34.904Z,73.80
2017-09-15T23:27:02.444Z,74.60
2017-09-15T23:29:29.975Z,73.90
2017-09-15T23:31:57.535Z,73.90
2017-09-15T23:34:25.832Z,74.10
2017-09-15T23:36:53.364Z,74.00
2017-09-15T23:39:21.683Z,73.10
2017-09-15T23:41:49.215Z,73.10
2017-09-15T23:44:17.980Z,73.10
2017-09-15T23:46:45.568Z,73.00
2017-09-15T23:49:25.240Z,73.10
2017-09-15T23:56:06.527Z,73.00
2017-09-15T23:58:34.064Z,73.80
